sensor_id;sensor_type;location;lat;lon;timestamp;pressure;altitude;pressure_sealevel;temperature;humidity
55486;BME280;49383;-25.924;28.194;2022-10-16T00:00:56;85243.77;;;22.43;28.24
55486;BME280;49383;-25.924;28.194;2022-10-16T00:03:22;85238.57;;;22.15;28.40
55486;BME280;49383;-25.924;28.194;2022-10-16T00:05:47;85231.22;;;22.16;27.67
55486;BME280;49383;-25.924;28.194;2022-10-16T00:08:12;85226.55;;;21.95;27.88
55486;BME280;49383;-25.924;28.194;2022-10-16T00:10:39;85232.56;;;22.16;27.90
55486;BME280;49383;-25.924;28.194;2022-10-16T00:13:04;85233.71;;;22.19;27.75
55486;BME280;49383;-25.924;28.194;2022-10-16T00:15:28;85230.95;;;22.17;27.64
55486;BME280;49383;-25.924;28.194;2022-10-16T00:17:54;85224.36;;;22.11;27.53
55486;BME280;49383;-25.924;28.194;2022-10-16T00:20:20;85213.74;;;22.37;27.45
55486;BME280;49383;-25.924;28.194;2022-10-16T00:22:45;85205.87;;;22.45;27.29
55486;BME280;49383;-25.924;28.194;2022-10-16T00:25:11;85207.08;;;22.35;27.58
55486;BME280;49383;-25.924;28.194;2022-10-16T00:27:36;85211.73;;;22.04;27.53
55486;BME280;49383;-25.924;28.194;2022-10-16T00:30:01;85215.60;;;22.23;29.11
55486;BME280;49383;-25.924;28.194;2022-10-16T00:32:27;85218.86;;;22.30;28.72
55486;BME280;49383;-25.924;28.194;2022-10-16T00:34:52;85215.10;;;22.29;28.11
55486;BME280;49383;-25.924;28.194;2022-10-16T00:37:18;85212.66;;;22.18;28.17
55486;BME280;49383;-25.924;28.194;2022-10-16T00:39:43;85208.95;;;22.38;27.91
55486;BME280;49383;-25.924;28.194;2022-10-16T00:42:13;85208.89;;;22.25;28.24
55486;BME280;49383;-25.924;28.194;2022-10-16T00:44:43;85204.93;;;22.20;28.23
55486;BME280;49383;-25.924;28.194;2022-10-16T00:46:59;85199.48;;;22.19;28.19
55486;BME280;49383;-25.924;28.194;2022-10-16T00:49:25;85197.20;;;22.16;28.11
55486;BME280;49383;-25.924;28.194;2022-10-16T00:51:53;85193.23;;;22.41;29.57
55486;BME280;49383;-25.924;28.194;2022-10-16T00:54:19;85197.38;;;22.28;28.93
55486;BME280;49383;-25.924;28.194;2022-10-16T00:56:43;85197.72;;;21.99;28.59
55486;BME280;49383;-25.924;28.194;2022-10-16T00:59:14;85196.35;;;22.16;28.31
55486;BME280;49383;-25.924;28.194;2022-10-16T01:01:33;85194.74;;;21.94;28.20
55486;BME280;49383;-25.924;28.194;2022-10-16T01:03:58;85198.45;;;22.20;28.30
55486;BME280;49383;-25.924;28.194;2022-10-16T01:06:27;85205.71;;;22.27;28.02
55486;BME280;49383;-25.924;28.194;2022-10-16T01:08:59;85209.05;;;22.02;28.21
55486;BME280;49383;-25.924;28.194;2022-10-16T01:11:20;85210.58;;;21.97;28.12
55486;BME280;49383;-25.924;28.194;2022-10-16T01:13:45;85209.24;;;21.96;28.38
55486;BME280;49383;-25.924;28.194;2022-10-16T01:16:11;85207.17;;;22.28;27.92
55486;BME280;49383;-25.924;28.194;2022-10-16T01:18:39;85199.95;;;22.14;27.88
55486;BME280;49383;-25.924;28.194;2022-10-16T01:21:02;85202.99;;;22.18;27.84
55486;BME280;49383;-25.924;28.194;2022-10-16T01:23:30;85203.65;;;21.98;28.13
55486;BME280;49383;-25.924;28.194;2022-10-16T01:26:02;85209.53;;;22.15;28.29
55486;BME280;49383;-25.924;28.194;2022-10-16T01:28:15;85214.59;;;22.14;28.09
55486;BME280;49383;-25.924;28.194;2022-10-16T01:30:41;85217.88;;;22.15;28.05
55486;BME280;49383;-25.924;28.194;2022-10-16T01:33:08;85218.56;;;22.18;28.09
55486;BME280;49383;-25.924;28.194;2022-10-16T01:35:32;85219.69;;;22.11;28.05
55486;BME280;49383;-25.924;28.194;2022-10-16T01:38:00;85223.90;;;22.20;27.92
55486;BME280;49383;-25.924;28.194;2022-10-16T01:40:22;85222.39;;;22.13;27.84
55486;BME280;49383;-25.924;28.194;2022-10-16T01:42:50;85220.39;;;22.03;28.02
55486;BME280;49383;-25.924;28.194;2022-10-16T01:45:13;85217.40;;;21.94;28.01
55486;BME280;49383;-25.924;28.194;2022-10-16T01:47:38;85218.33;;;21.76;28.18
55486;BME280;49383;-25.924;28.194;2022-10-16T01:50:04;85216.89;;;21.90;28.11
55486;BME280;49383;-25.924;28.194;2022-10-16T01:52:29;85214.97;;;22.10;27.92
55486;BME280;49383;-25.924;28.194;2022-10-16T01:54:55;85219.08;;;22.09;28.21
55486;BME280;49383;-25.924;28.194;2022-10-16T01:57:21;85218.87;;;22.21;28.28
55486;BME280;49383;-25.924;28.194;2022-10-16T01:59:46;85229.45;;;21.96;28.15
55486;BME280;49383;-25.924;28.194;2022-10-16T02:02:11;85237.50;;;22.05;28.39
55486;BME280;49383;-25.924;28.194;2022-10-16T02:04:39;85238.61;;;21.96;28.50
55486;BME280;49383;-25.924;28.194;2022-10-16T02:07:00;85238.22;;;22.00;28.45
55486;BME280;49383;-25.924;28.194;2022-10-16T02:09:26;85232.40;;;22.06;27.93
55486;BME280;49383;-25.924;28.194;2022-10-16T02:11:53;85231.33;;;21.87;28.48
55486;BME280;49383;-25.924;28.194;2022-10-16T02:14:17;85231.19;;;21.74;27.89
55486;BME280;49383;-25.924;28.194;2022-10-16T02:16:44;85228.54;;;22.15;28.22
55486;BME280;49383;-25.924;28.194;2022-10-16T02:19:08;85231.01;;;21.89;28.13
55486;BME280;49383;-25.924;28.194;2022-10-16T02:21:39;85228.55;;;21.88;28.61
55486;BME280;49383;-25.924;28.194;2022-10-16T02:24:03;85232.77;;;21.66;28.28
55486;BME280;49383;-25.924;28.194;2022-10-16T02:26:28;85234.97;;;21.93;27.97
55486;BME280;49383;-25.924;28.194;2022-10-16T02:28:54;85234.95;;;21.72;27.96
55486;BME280;49383;-25.924;28.194;2022-10-16T02:31:21;85238.00;;;21.91;28.13
55486;BME280;49383;-25.924;28.194;2022-10-16T02:33:44;85241.22;;;21.90;28.09
55486;BME280;49383;-25.924;28.194;2022-10-16T02:36:06;85240.76;;;21.90;28.13
55486;BME280;49383;-25.924;28.194;2022-10-16T02:38:33;85237.78;;;21.89;28.33
55486;BME280;49383;-25.924;28.194;2022-10-16T02:40:57;85240.72;;;21.64;28.28
55486;BME280;49383;-25.924;28.194;2022-10-16T02:43:22;85241.24;;;21.95;28.14
55486;BME280;49383;-25.924;28.194;2022-10-16T02:45:48;85245.58;;;21.65;28.26
55486;BME280;49383;-25.924;28.194;2022-10-16T02:48:13;85247.56;;;21.79;28.40
55486;BME280;49383;-25.924;28.194;2022-10-16T02:50:39;85250.64;;;21.76;28.65
55486;BME280;49383;-25.924;28.194;2022-10-16T02:53:04;85252.63;;;21.92;28.06
55486;BME280;49383;-25.924;28.194;2022-10-16T02:55:30;85255.20;;;21.61;28.55
55486;BME280;49383;-25.924;28.194;2022-10-16T02:57:56;85255.35;;;21.80;28.47
55486;BME280;49383;-25.924;28.194;2022-10-16T03:00:21;85254.48;;;21.58;28.58
55486;BME280;49383;-25.924;28.194;2022-10-16T03:02:46;85257.42;;;21.95;28.25
55486;BME280;49383;-25.924;28.194;2022-10-16T03:05:12;85260.10;;;21.73;28.51
55486;BME280;49383;-25.924;28.194;2022-10-16T03:07:38;85258.89;;;21.93;28.19
55486;BME280;49383;-25.924;28.194;2022-10-16T03:10:03;85261.68;;;21.74;28.59
55486;BME280;49383;-25.924;28.194;2022-10-16T03:12:29;85261.33;;;21.69;28.81
55486;BME280;49383;-25.924;28.194;2022-10-16T03:14:54;85262.43;;;21.75;28.88
55486;BME280;49383;-25.924;28.194;2022-10-16T03:17:19;85259.29;;;21.53;28.49
55486;BME280;49383;-25.924;28.194;2022-10-16T03:19:44;85256.29;;;21.76;28.61
55486;BME280;49383;-25.924;28.194;2022-10-16T03:22:11;85261.63;;;21.72;28.48
55486;BME280;49383;-25.924;28.194;2022-10-16T03:24:35;85261.35;;;21.74;28.42
55486;BME280;49383;-25.924;28.194;2022-10-16T03:27:01;85264.25;;;21.78;28.35
55486;BME280;49383;-25.924;28.194;2022-10-16T03:29:26;85271.33;;;21.80;28.19
55486;BME280;49383;-25.924;28.194;2022-10-16T03:31:52;85271.17;;;21.77;28.29
55486;BME280;49383;-25.924;28.194;2022-10-16T03:34:18;85276.65;;;21.55;28.27
55486;BME280;49383;-25.924;28.194;2022-10-16T03:36:43;85276.95;;;21.78;28.17
55486;BME280;49383;-25.924;28.194;2022-10-16T03:39:08;85276.85;;;21.73;28.25
55486;BME280;49383;-25.924;28.194;2022-10-16T03:41:34;85280.75;;;21.76;28.14
55486;BME280;49383;-25.924;28.194;2022-10-16T03:43:59;85281.89;;;21.68;28.80
55486;BME280;49383;-25.924;28.194;2022-10-16T03:46:25;85279.38;;;21.83;29.31
55486;BME280;49383;-25.924;28.194;2022-10-16T03:48:50;85279.44;;;21.76;29.73
55486;BME280;49383;-25.924;28.194;2022-10-16T03:51:16;85282.17;;;21.69;29.85
55486;BME280;49383;-25.924;28.194;2022-10-16T03:53:41;85288.98;;;21.72;29.79
55486;BME280;49383;-25.924;28.194;2022-10-16T03:56:07;85298.34;;;21.65;30.06
55486;BME280;49383;-25.924;28.194;2022-10-16T03:58:32;85299.09;;;21.66;29.73
55486;BME280;49383;-25.924;28.194;2022-10-16T04:00:58;85300.79;;;21.72;29.73
55486;BME280;49383;-25.924;28.194;2022-10-16T04:03:23;85305.48;;;21.53;29.44
55486;BME280;49383;-25.924;28.194;2022-10-16T04:05:49;85308.48;;;21.72;29.21
55486;BME280;49383;-25.924;28.194;2022-10-16T04:08:14;85310.31;;;21.92;29.42
55486;BME280;49383;-25.924;28.194;2022-10-16T04:10:39;85311.44;;;21.61;29.23
55486;BME280;49383;-25.924;28.194;2022-10-16T04:13:05;85310.70;;;21.76;30.28
55486;BME280;49383;-25.924;28.194;2022-10-16T04:15:30;85311.95;;;21.72;30.73
55486;BME280;49383;-25.924;28.194;2022-10-16T04:17:55;85321.49;;;21.63;29.95
55486;BME280;49383;-25.924;28.194;2022-10-16T04:20:21;85320.71;;;21.68;29.66
55486;BME280;49383;-25.924;28.194;2022-10-16T04:22:46;85330.71;;;21.61;29.42
55486;BME280;49383;-25.924;28.194;2022-10-16T04:25:11;85333.15;;;21.65;29.32
55486;BME280;49383;-25.924;28.194;2022-10-16T04:27:37;85334.11;;;21.71;29.11
55486;BME280;49383;-25.924;28.194;2022-10-16T04:30:02;85337.39;;;21.59;29.32
55486;BME280;49383;-25.924;28.194;2022-10-16T04:32:28;85340.03;;;21.80;29.18
55486;BME280;49383;-25.924;28.194;2022-10-16T04:34:53;85345.34;;;21.82;28.91
55486;BME280;49383;-25.924;28.194;2022-10-16T04:37:22;85347.84;;;21.75;28.82
55486;BME280;49383;-25.924;28.194;2022-10-16T04:39:45;85348.41;;;21.51;28.88
55486;BME280;49383;-25.924;28.194;2022-10-16T04:42:11;85351.74;;;21.57;28.85
55486;BME280;49383;-25.924;28.194;2022-10-16T04:44:35;85355.57;;;21.79;28.59
55486;BME280;49383;-25.924;28.194;2022-10-16T04:47:01;85360.77;;;21.79;28.64
55486;BME280;49383;-25.924;28.194;2022-10-16T04:49:26;85358.28;;;21.54;28.50
55486;BME280;49383;-25.924;28.194;2022-10-16T04:51:52;85358.30;;;21.84;32.55
55486;BME280;49383;-25.924;28.194;2022-10-16T04:54:17;85353.10;;;21.88;34.08
55486;BME280;49383;-25.924;28.194;2022-10-16T04:56:43;85353.26;;;21.70;33.06
55486;BME280;49383;-25.924;28.194;2022-10-16T04:59:08;85356.05;;;21.95;33.42
55486;BME280;49383;-25.924;28.194;2022-10-16T05:01:34;85358.87;;;21.97;33.41
55486;BME280;49383;-25.924;28.194;2022-10-16T05:03:59;85355.28;;;21.77;31.71
55486;BME280;49383;-25.924;28.194;2022-10-16T05:06:24;85356.36;;;22.04;32.08
55486;BME280;49383;-25.924;28.194;2022-10-16T05:08:50;85355.67;;;21.85;32.02
55486;BME280;49383;-25.924;28.194;2022-10-16T05:11:15;85357.38;;;21.62;32.37
55486;BME280;49383;-25.924;28.194;2022-10-16T05:13:41;85360.84;;;21.93;32.12
55486;BME280;49383;-25.924;28.194;2022-10-16T05:16:07;85357.03;;;21.55;31.22
55486;BME280;49383;-25.924;28.194;2022-10-16T05:18:32;85361.28;;;21.97;31.29
55486;BME280;49383;-25.924;28.194;2022-10-16T05:20:58;85358.58;;;21.93;32.36
55486;BME280;49383;-25.924;28.194;2022-10-16T05:23:23;85365.05;;;22.07;32.28
55486;BME280;49383;-25.924;28.194;2022-10-16T05:25:54;85367.15;;;21.92;33.25
55486;BME280;49383;-25.924;28.194;2022-10-16T05:28:14;85367.57;;;22.14;34.24
55486;BME280;49383;-25.924;28.194;2022-10-16T05:30:39;85372.73;;;22.12;34.97
55486;BME280;49383;-25.924;28.194;2022-10-16T05:33:05;85375.54;;;22.08;35.13
55486;BME280;49383;-25.924;28.194;2022-10-16T05:35:30;85375.23;;;22.35;34.73
55486;BME280;49383;-25.924;28.194;2022-10-16T05:37:55;85376.19;;;21.94;35.33
55486;BME280;49383;-25.924;28.194;2022-10-16T05:40:21;85380.86;;;21.85;35.27
55486;BME280;49383;-25.924;28.194;2022-10-16T05:42:46;85380.42;;;22.24;34.72
55486;BME280;49383;-25.924;28.194;2022-10-16T05:45:12;85380.44;;;22.14;36.64
55486;BME280;49383;-25.924;28.194;2022-10-16T05:47:36;85378.52;;;22.18;36.69
55486;BME280;49383;-25.924;28.194;2022-10-16T05:50:02;85380.89;;;22.27;36.45
55486;BME280;49383;-25.924;28.194;2022-10-16T05:52:27;85383.44;;;22.16;35.92
55486;BME280;49383;-25.924;28.194;2022-10-16T05:54:52;85383.87;;;22.20;36.50
55486;BME280;49383;-25.924;28.194;2022-10-16T05:57:17;85383.91;;;22.50;36.69
55486;BME280;49383;-25.924;28.194;2022-10-16T05:59:43;85382.95;;;22.58;36.82
55486;BME280;49383;-25.924;28.194;2022-10-16T06:02:12;85384.36;;;22.39;36.77
55486;BME280;49383;-25.924;28.194;2022-10-16T06:04:34;85386.37;;;22.48;36.87
55486;BME280;49383;-25.924;28.194;2022-10-16T06:06:59;85391.84;;;22.15;37.00
55486;BME280;49383;-25.924;28.194;2022-10-16T06:09:25;85395.58;;;22.13;37.09
55486;BME280;49383;-25.924;28.194;2022-10-16T06:11:51;85394.68;;;22.33;37.60
55486;BME280;49383;-25.924;28.194;2022-10-16T06:14:16;85406.08;;;22.65;35.68
55486;BME280;49383;-25.924;28.194;2022-10-16T06:16:41;85403.90;;;22.67;37.78
55486;BME280;49383;-25.924;28.194;2022-10-16T06:19:07;85406.12;;;22.38;38.01
55486;BME280;49383;-25.924;28.194;2022-10-16T06:21:33;85405.43;;;22.38;38.23
55486;BME280;49383;-25.924;28.194;2022-10-16T06:23:58;85399.99;;;22.34;38.16
55486;BME280;49383;-25.924;28.194;2022-10-16T06:26:25;85406.55;;;22.36;37.57
55486;BME280;49383;-25.924;28.194;2022-10-16T06:28:49;85407.74;;;22.15;38.31
55486;BME280;49383;-25.924;28.194;2022-10-16T06:31:15;85411.22;;;22.80;38.15
55486;BME280;49383;-25.924;28.194;2022-10-16T06:33:41;85412.90;;;22.37;38.00
55486;BME280;49383;-25.924;28.194;2022-10-16T06:36:07;85411.90;;;22.58;38.14
55486;BME280;49383;-25.924;28.194;2022-10-16T06:38:31;85406.69;;;22.74;37.99
55486;BME280;49383;-25.924;28.194;2022-10-16T06:40:57;85400.76;;;22.74;37.62
55486;BME280;49383;-25.924;28.194;2022-10-16T06:43:22;85403.53;;;22.26;37.83
55486;BME280;49383;-25.924;28.194;2022-10-16T06:45:52;85400.28;;;22.54;37.96
55486;BME280;49383;-25.924;28.194;2022-10-16T06:48:13;85399.08;;;22.57;37.95
55486;BME280;49383;-25.924;28.194;2022-10-16T06:50:38;85398.31;;;22.42;37.63
55486;BME280;49383;-25.924;28.194;2022-10-16T06:53:04;85398.17;;;22.52;37.66
55486;BME280;49383;-25.924;28.194;2022-10-16T06:55:29;85402.80;;;22.59;37.57
55486;BME280;49383;-25.924;28.194;2022-10-16T06:57:54;85401.14;;;22.79;37.03
55486;BME280;49383;-25.924;28.194;2022-10-16T07:00:20;85398.54;;;22.95;37.20
55486;BME280;49383;-25.924;28.194;2022-10-16T07:02:46;85399.93;;;22.95;37.19
55486;BME280;49383;-25.924;28.194;2022-10-16T07:05:11;85400.66;;;23.08;36.91
55486;BME280;49383;-25.924;28.194;2022-10-16T07:07:37;85407.39;;;23.18;36.95
55486;BME280;49383;-25.924;28.194;2022-10-16T07:10:02;85405.44;;;23.46;36.97
55486;BME280;49383;-25.924;28.194;2022-10-16T07:12:27;85404.66;;;23.16;36.96
55486;BME280;49383;-25.924;28.194;2022-10-16T07:14:53;85406.91;;;23.18;36.98
55486;BME280;49383;-25.924;28.194;2022-10-16T07:17:18;85401.73;;;23.16;36.98
55486;BME280;49383;-25.924;28.194;2022-10-16T07:19:44;85401.29;;;23.18;37.00
55486;BME280;49383;-25.924;28.194;2022-10-16T07:22:09;85398.44;;;23.29;36.86
55486;BME280;49383;-25.924;28.194;2022-10-16T07:24:35;85394.99;;;23.37;36.76
55486;BME280;49383;-25.924;28.194;2022-10-16T07:27:00;85395.17;;;23.38;36.74
55486;BME280;49383;-25.924;28.194;2022-10-16T07:29:26;85394.57;;;23.24;36.87
55486;BME280;49383;-25.924;28.194;2022-10-16T07:31:51;85396.44;;;23.26;36.15
55486;BME280;49383;-25.924;28.194;2022-10-16T07:34:18;85396.63;;;23.42;36.64
55486;BME280;49383;-25.924;28.194;2022-10-16T07:36:42;85397.86;;;23.46;36.60
55486;BME280;49383;-25.924;28.194;2022-10-16T07:39:08;85394.39;;;23.52;36.52
55486;BME280;49383;-25.924;28.194;2022-10-16T07:41:33;85396.68;;;23.51;36.55
55486;BME280;49383;-25.924;28.194;2022-10-16T07:43:59;85400.06;;;23.53;36.50
55486;BME280;49383;-25.924;28.194;2022-10-16T07:46:24;85396.17;;;23.41;36.63
55486;BME280;49383;-25.924;28.194;2022-10-16T07:48:50;85390.60;;;23.33;36.70
55486;BME280;49383;-25.924;28.194;2022-10-16T07:51:17;85387.99;;;23.24;36.77
55486;BME280;49383;-25.924;28.194;2022-10-16T07:53:40;85385.35;;;23.29;36.47
55486;BME280;49383;-25.924;28.194;2022-10-16T07:56:07;85387.88;;;23.70;36.31
55486;BME280;49383;-25.924;28.194;2022-10-16T07:58:31;85389.99;;;23.33;35.33
55486;BME280;49383;-25.924;28.194;2022-10-16T08:00:58;85387.89;;;23.49;34.87
55486;BME280;49383;-25.924;28.194;2022-10-16T08:03:23;85383.28;;;23.59;35.31
55486;BME280;49383;-25.924;28.194;2022-10-16T08:05:48;85379.48;;;23.72;35.54
55486;BME280;49383;-25.924;28.194;2022-10-16T08:08:15;85383.50;;;23.78;35.12
55486;BME280;49383;-25.924;28.194;2022-10-16T08:10:39;85378.52;;;23.55;34.66
55486;BME280;49383;-25.924;28.194;2022-10-16T08:13:05;85375.53;;;23.61;34.43
55486;BME280;49383;-25.924;28.194;2022-10-16T08:15:30;85374.10;;;23.93;34.98
55486;BME280;49383;-25.924;28.194;2022-10-16T08:17:57;85368.82;;;23.96;34.67
55486;BME280;49383;-25.924;28.194;2022-10-16T08:20:21;85367.72;;;24.06;35.37
55486;BME280;49383;-25.924;28.194;2022-10-16T08:22:47;85366.10;;;23.86;35.03
55486;BME280;49383;-25.924;28.194;2022-10-16T08:25:12;85367.41;;;24.15;34.01
55486;BME280;49383;-25.924;28.194;2022-10-16T08:27:38;85365.06;;;23.87;34.17
55486;BME280;49383;-25.924;28.194;2022-10-16T08:30:03;85360.75;;;24.14;33.79
55486;BME280;49383;-25.924;28.194;2022-10-16T08:32:28;85363.31;;;24.14;34.24
55486;BME280;49383;-25.924;28.194;2022-10-16T08:34:53;85369.39;;;23.86;33.64
55486;BME280;49383;-25.924;28.194;2022-10-16T08:37:18;85363.12;;;24.12;33.90
55486;BME280;49383;-25.924;28.194;2022-10-16T08:39:43;85366.05;;;24.15;33.66
55486;BME280;49383;-25.924;28.194;2022-10-16T08:42:23;85370.00;;;24.17;33.54
55486;BME280;49383;-25.924;28.194;2022-10-16T08:47:05;85350.94;;;24.21;32.92
55486;BME280;49383;-25.924;28.194;2022-10-16T08:49:25;85343.10;;;23.97;33.20
55486;BME280;49383;-25.924;28.194;2022-10-16T08:51:50;85342.07;;;24.25;33.16
55486;BME280;49383;-25.924;28.194;2022-10-16T08:54:25;85344.00;;;24.22;33.21
55486;BME280;49383;-25.924;28.194;2022-10-16T08:56:41;85347.68;;;23.93;32.90
55486;BME280;49383;-25.924;28.194;2022-10-16T08:59:10;85350.95;;;24.24;33.45
55486;BME280;49383;-25.924;28.194;2022-10-16T09:01:40;85357.70;;;24.21;33.25
55486;BME280;49383;-25.924;28.194;2022-10-16T09:04:21;85358.49;;;24.12;32.83
55486;BME280;49383;-25.924;28.194;2022-10-16T09:06:32;85362.51;;;24.14;32.57
55486;BME280;49383;-25.924;28.194;2022-10-16T09:08:56;85355.66;;;24.15;32.41
55486;BME280;49383;-25.924;28.194;2022-10-16T09:11:17;85353.47;;;24.16;32.30
55486;BME280;49383;-25.924;28.194;2022-10-16T09:13:46;85350.62;;;24.10;32.42
55486;BME280;49383;-25.924;28.194;2022-10-16T09:16:12;85350.31;;;24.25;32.54
55486;BME280;49383;-25.924;28.194;2022-10-16T09:18:32;85340.83;;;24.24;32.49
55486;BME280;49383;-25.924;28.194;2022-10-16T09:20:58;85344.16;;;24.02;32.50
55486;BME280;49383;-25.924;28.194;2022-10-16T09:23:22;85341.86;;;24.29;32.53
55486;BME280;49383;-25.924;28.194;2022-10-16T09:25:46;85340.68;;;24.00;32.50
55486;BME280;49383;-25.924;28.194;2022-10-16T09:28:08;85334.30;;;24.31;32.60
55486;BME280;49383;-25.924;28.194;2022-10-16T09:30:33;85325.17;;;24.30;32.71
55486;BME280;49383;-25.924;28.194;2022-10-16T09:32:59;85323.33;;;24.25;32.75
55486;BME280;49383;-25.924;28.194;2022-10-16T09:35:31;85326.76;;;24.29;32.67
55486;BME280;49383;-25.924;28.194;2022-10-16T09:37:51;85328.15;;;24.24;32.57
55486;BME280;49383;-25.924;28.194;2022-10-16T09:42:39;85332.25;;;24.17;32.35
55486;BME280;49383;-25.924;28.194;2022-10-16T09:45:04;85327.34;;;24.29;32.18
55486;BME280;49383;-25.924;28.194;2022-10-16T09:47:30;85323.53;;;24.25;32.22
55486;BME280;49383;-25.924;28.194;2022-10-16T09:49:56;85331.16;;;24.51;32.27
55486;BME280;49383;-25.924;28.194;2022-10-16T09:52:20;85329.57;;;24.22;32.40
55486;BME280;49383;-25.924;28.194;2022-10-16T09:54:50;85315.06;;;24.30;32.28
55486;BME280;49383;-25.924;28.194;2022-10-16T09:57:14;85312.73;;;24.47;32.26
55486;BME280;49383;-25.924;28.194;2022-10-16T10:02:04;85309.74;;;24.42;32.31
55486;BME280;49383;-25.924;28.194;2022-10-16T10:04:26;85313.86;;;24.38;32.41
55486;BME280;49383;-25.924;28.194;2022-10-16T10:06:52;85308.54;;;24.17;32.45
55486;BME280;49383;-25.924;28.194;2022-10-16T10:09:19;85297.65;;;24.21;32.46
55486;BME280;49383;-25.924;28.194;2022-10-16T10:11:44;85295.67;;;24.27;32.42
55486;BME280;49383;-25.924;28.194;2022-10-16T10:14:06;85293.31;;;24.23;32.42
55486;BME280;49383;-25.924;28.194;2022-10-16T10:16:31;85281.28;;;24.27;32.67
55486;BME280;49383;-25.924;28.194;2022-10-16T10:18:59;85285.29;;;24.19;32.79
55486;BME280;49383;-25.924;28.194;2022-10-16T10:21:21;85277.93;;;24.36;32.82
55486;BME280;49383;-25.924;28.194;2022-10-16T10:23:55;85273.45;;;23.88;32.87
55486;BME280;49383;-25.924;28.194;2022-10-16T10:26:16;85268.50;;;24.07;32.94
55486;BME280;49383;-25.924;28.194;2022-10-16T10:28:49;85268.97;;;23.80;33.15
55486;BME280;49383;-25.924;28.194;2022-10-16T10:31:06;85269.87;;;23.52;33.23
55486;BME280;49383;-25.924;28.194;2022-10-16T10:33:35;85258.42;;;24.02;33.28
55486;BME280;49383;-25.924;28.194;2022-10-16T10:35:57;85264.76;;;23.99;33.51
55486;BME280;49383;-25.924;28.194;2022-10-16T10:38:28;85256.96;;;23.77;33.70
55486;BME280;49383;-25.924;28.194;2022-10-16T10:40:49;85258.50;;;23.42;33.94
55486;BME280;49383;-25.924;28.194;2022-10-16T10:43:18;85260.04;;;23.80;34.12
55486;BME280;49383;-25.924;28.194;2022-10-16T10:45:41;85258.72;;;23.85;34.03
55486;BME280;49383;-25.924;28.194;2022-10-16T10:48:12;85248.03;;;23.65;34.23
55486;BME280;49383;-25.924;28.194;2022-10-16T10:50:29;85245.76;;;23.75;34.00
55486;BME280;49383;-25.924;28.194;2022-10-16T10:52:58;85246.35;;;23.79;33.84
55486;BME280;49383;-25.924;28.194;2022-10-16T10:55:21;85251.73;;;23.72;33.98
55486;BME280;49383;-25.924;28.194;2022-10-16T10:57:48;85250.31;;;23.45;33.98
55486;BME280;49383;-25.924;28.194;2022-10-16T11:00:16;85248.53;;;23.59;33.96
55486;BME280;49383;-25.924;28.194;2022-10-16T11:02:35;85246.40;;;23.50;33.98
55486;BME280;49383;-25.924;28.194;2022-10-16T11:07:23;85235.01;;;23.57;33.82
55486;BME280;49383;-25.924;28.194;2022-10-16T11:09:47;85235.67;;;23.68;33.68
55486;BME280;49383;-25.924;28.194;2022-10-16T11:12:17;85241.73;;;23.56;33.68
55486;BME280;49383;-25.924;28.194;2022-10-16T11:14:39;85237.68;;;23.64;33.56
55486;BME280;49383;-25.924;28.194;2022-10-16T11:17:07;85227.54;;;23.60;33.56
55486;BME280;49383;-25.924;28.194;2022-10-16T11:19:34;85226.95;;;23.58;33.50
55486;BME280;49383;-25.924;28.194;2022-10-16T11:21:54;85230.27;;;23.74;33.27
55486;BME280;49383;-25.924;28.194;2022-10-16T11:24:20;85233.44;;;23.67;33.29
55486;BME280;49383;-25.924;28.194;2022-10-16T11:26:42;85225.24;;;23.61;33.28
55486;BME280;49383;-25.924;28.194;2022-10-16T11:29:12;85221.44;;;23.68;33.15
55486;BME280;49383;-25.924;28.194;2022-10-16T11:31:36;85220.97;;;23.54;33.18
55486;BME280;49383;-25.924;28.194;2022-10-16T11:34:03;85214.51;;;23.54;33.12
55486;BME280;49383;-25.924;28.194;2022-10-16T11:36:25;85209.10;;;23.83;33.09
55486;BME280;49383;-25.924;28.194;2022-10-16T11:38:53;85211.72;;;23.33;33.00
55486;BME280;49383;-25.924;28.194;2022-10-16T11:41:22;85208.12;;;23.56;32.94
55486;BME280;49383;-25.924;28.194;2022-10-16T11:43:40;85214.75;;;23.67;32.81
55486;BME280;49383;-25.924;28.194;2022-10-16T11:46:08;85203.03;;;23.55;32.89
55486;BME280;49383;-25.924;28.194;2022-10-16T11:48:32;85205.58;;;23.61;32.73
55486;BME280;49383;-25.924;28.194;2022-10-16T11:50:54;85190.45;;;23.65;32.73
55486;BME280;49383;-25.924;28.194;2022-10-16T11:53:24;85186.72;;;23.66;32.73
55486;BME280;49383;-25.924;28.194;2022-10-16T11:55:44;85182.97;;;23.69;32.67
55486;BME280;49383;-25.924;28.194;2022-10-16T11:58:13;85184.72;;;23.43;32.73
55486;BME280;49383;-25.924;28.194;2022-10-16T12:00:38;85183.92;;;23.48;32.62
55486;BME280;49383;-25.924;28.194;2022-10-16T12:03:03;85176.99;;;23.79;32.49
55486;BME280;49383;-25.924;28.194;2022-10-16T12:05:31;85173.61;;;23.59;32.43
55486;BME280;49383;-25.924;28.194;2022-10-16T12:07:54;85174.40;;;23.59;32.45
55486;BME280;49383;-25.924;28.194;2022-10-16T12:10:20;85166.41;;;23.78;32.44
55486;BME280;49383;-25.924;28.194;2022-10-16T12:12:40;85169.98;;;23.41;32.38
55486;BME280;49383;-25.924;28.194;2022-10-16T12:17:35;85172.72;;;23.43;32.33
55486;BME280;49383;-25.924;28.194;2022-10-16T12:20:00;85175.67;;;23.60;32.38
55486;BME280;49383;-25.924;28.194;2022-10-16T12:22:20;85168.42;;;23.57;32.39
55486;BME280;49383;-25.924;28.194;2022-10-16T12:24:45;85170.19;;;23.75;32.43
55486;BME280;49383;-25.924;28.194;2022-10-16T12:29:38;85164.71;;;23.79;32.34
55486;BME280;49383;-25.924;28.194;2022-10-16T12:32:02;85165.50;;;23.69;32.41
55486;BME280;49383;-25.924;28.194;2022-10-16T12:34:29;85161.04;;;23.66;32.41
55486;BME280;49383;-25.924;28.194;2022-10-16T12:36:51;85161.32;;;23.32;32.31
55486;BME280;49383;-25.924;28.194;2022-10-16T12:39:21;85163.66;;;23.52;32.02
55486;BME280;49383;-25.924;28.194;2022-10-16T12:41:41;85165.20;;;23.62;31.92
55486;BME280;49383;-25.924;28.194;2022-10-16T12:46:39;85165.51;;;23.75;31.93